Time;durP1;ratioP1;P1;durP2;ratioP2;P2;SDS_P1;SDS_P2;PMS_P1;PMS_P2;Temp;Humidity;BMP_temperature;BMP_pressure;BME280_temperature;BME280_humidity;BME280_pressure;Samples;Min_cycle;Max_cycle;Signal;HPM_P1;HPM_P2
2022/05/29 00:00:17;;;;;;;3.58;1.45;;;14.10;89.50;;;;;;4947928;28;20027;-86
2022/05/29 00:02:43;;;;;;;6.85;1.85;;;14.20;89.70;;;;;;4962878;28;20098;-87
2022/05/29 00:05:11;;;;;;;6.68;1.73;;;14.10;89.80;;;;;;4976267;28;20102;-86
2022/05/29 00:07:38;;;;;;;4.85;1.83;;;14.10;90.00;;;;;;4955905;28;20030;-86
2022/05/29 00:10:09;;;;;;;6.13;1.52;;;14.10;90.10;;;;;;4958744;28;20069;-86
2022/05/29 00:12:35;;;;;;;5.00;1.63;;;14.10;90.20;;;;;;4948851;28;20015;-86
2022/05/29 00:15:02;;;;;;;7.30;2.15;;;14.10;90.20;;;;;;4955640;28;20391;-86
2022/05/29 00:17:27;;;;;;;6.63;1.65;;;14.00;90.30;;;;;;4952982;28;20463;-86
2022/05/29 00:19:55;;;;;;;5.78;1.60;;;14.10;90.50;;;;;;4948465;28;20061;-86
2022/05/29 00:22:22;;;;;;;5.90;1.60;;;14.10;90.60;;;;;;4956170;28;20082;-87
2022/05/29 00:24:49;;;;;;;4.88;1.90;;;14.00;90.60;;;;;;4958842;28;20479;-86
2022/05/29 00:27:18;;;;;;;8.60;2.17;;;14.00;90.70;;;;;;4962918;28;20523;-86
2022/05/29 00:29:44;;;;;;;4.75;1.55;;;14.00;90.80;;;;;;4972099;28;20067;-86
2022/05/29 00:32:10;;;;;;;9.15;1.90;;;14.00;91.00;;;;;;4955569;29;20428;-87
2022/05/29 00:34:36;;;;;;;4.65;1.60;;;14.00;91.10;;;;;;4956431;28;20027;-85
2022/05/29 00:37:05;;;;;;;8.82;1.92;;;14.00;91.20;;;;;;4965048;28;20034;-86
2022/05/29 00:39:31;;;;;;;6.88;1.77;;;14.00;91.30;;;;;;4954958;28;20031;-86
2022/05/29 00:41:57;;;;;;;7.00;2.15;;;13.90;91.50;;;;;;4955562;28;20019;-86
2022/05/29 00:44:28;;;;;;;6.80;1.88;;;13.90;91.60;;;;;;4954242;29;20062;-86
2022/05/29 00:46:55;;;;;;;;;;;13.90;91.80;;;;;;4942976;29;20375;-86
2022/05/29 00:49:32;;;;;;;8.32;1.98;;;13.90;92.20;;;;;;4968936;28;19985;-86
2022/05/29 00:52:05;;;;;;;4.68;1.65;;;13.90;92.20;;;;;;4975508;28;20098;-86
2022/05/29 00:54:40;;;;;;;8.27;2.00;;;13.80;92.30;;;;;;4962275;28;20102;-87
2022/05/29 00:57:06;;;;;;;6.65;1.67;;;13.80;92.60;;;;;;4970899;28;20023;-86
2022/05/29 00:59:33;;;;;;;7.20;1.90;;;13.80;92.80;;;;;;4946238;29;20418;-86
2022/05/29 01:02:03;;;;;;;7.25;2.00;;;13.80;93.10;;;;;;4967639;28;20059;-86
2022/05/29 01:04:34;;;;;;;8.57;1.90;;;13.80;93.30;;;;;;4950034;28;20174;-87
2022/05/29 01:07:08;;;;;;;8.15;1.90;;;13.80;93.60;;;;;;4954189;28;20034;-87
2022/05/29 01:09:40;;;;;;;6.47;1.80;;;13.80;93.80;;;;;;4959246;28;20031;-86
2022/05/29 01:12:22;;;;;;;6.03;1.70;;;13.70;94.00;;;;;;4960555;28;20030;-87
2022/05/29 01:15:00;;;;;;;8.25;2.30;;;13.70;94.20;;;;;;4952892;28;20057;-86
2022/05/29 01:17:53;;;;;;;5.97;1.80;;;13.70;94.50;;;;;;4967174;28;20042;-86
2022/05/29 01:20:32;;;;;;;6.78;2.17;;;13.70;94.80;;;;;;4938721;29;20027;-86
2022/05/29 01:23:13;;;;;;;7.93;2.78;;;13.70;94.90;;;;;;4954955;28;20027;-87
2022/05/29 01:26:03;;;;;;;8.13;2.38;;;13.70;95.20;;;;;;4968090;28;20100;-87
2022/05/29 01:28:55;;;;;;;6.93;2.42;;;13.60;95.50;;;;;;4955523;28;20039;-87
2022/05/29 01:31:50;;;;;;;6.72;2.50;;;13.60;95.50;;;;;;4955949;28;20024;-87
2022/05/29 01:34:25;;;;;;;10.88;2.45;;;13.50;95.70;;;;;;4938879;29;20110;-87
2022/05/29 01:36:59;;;;;;;9.30;2.35;;;13.50;95.80;;;;;;4955818;28;20019;-87
2022/05/29 01:39:33;;;;;;;7.82;2.45;;;13.50;96.00;;;;;;4938667;29;20031;-86
2022/05/29 01:42:05;;;;;;;9.60;2.80;;;13.40;96.10;;;;;;4969282;28;20031;-86
2022/05/29 01:44:42;;;;;;;6.00;2.10;;;13.40;96.20;;;;;;4968855;28;20030;-87
2022/05/29 01:47:23;;;;;;;8.07;2.30;;;13.40;96.40;;;;;;4954399;28;20030;-87
2022/05/29 01:50:00;;;;;;;8.70;2.30;;;13.40;96.50;;;;;;4954570;28;20043;-86
2022/05/29 01:52:42;;;;;;;7.03;2.53;;;13.40;96.60;;;;;;4956856;28;20082;-86
2022/05/29 01:55:21;;;;;;;12.45;3.03;;;13.40;96.70;;;;;;4955607;28;20020;-86
2022/05/29 01:57:50;;;;;;;6.40;2.28;;;13.30;96.80;;;;;;4954453;28;20041;-87
2022/05/29 02:00:19;;;;;;;8.63;2.28;;;13.30;96.90;;;;;;4974953;28;20050;-86
2022/05/29 02:02:51;;;;;;;5.75;2.30;;;13.30;97.10;;;;;;4944614;28;20045;-86
2022/05/29 02:05:32;;;;;;;10.68;2.65;;;13.30;97.20;;;;;;4970690;28;20053;-86
2022/05/29 02:08:19;;;;;;;12.88;2.85;;;13.20;97.30;;;;;;4944673;28;20475;-86
2022/05/29 02:10:55;;;;;;;11.82;2.03;;;13.20;97.40;;;;;;4953276;29;20019;-86
2022/05/29 02:13:29;;;;;;;9.27;2.80;;;13.20;97.50;;;;;;4955131;28;20027;-86
2022/05/29 02:16:12;;;;;;;8.30;2.25;;;13.20;97.60;;;;;;4956709;28;20039;-86
2022/05/29 02:18:44;;;;;;;9.27;2.90;;;13.20;97.70;;;;;;4956887;28;20546;-87
2022/05/29 02:21:20;;;;;;;8.32;2.17;;;13.20;97.80;;;;;;4969415;28;20409;-86
2022/05/29 02:23:51;;;;;;;12.32;2.90;;;13.20;97.90;;;;;;4960825;28;20460;-87
2022/05/29 02:26:25;;;;;;;9.43;2.63;;;13.20;98.00;;;;;;4957035;28;20464;-86
2022/05/29 02:28:55;;;;;;;7.57;2.20;;;13.20;98.00;;;;;;4956926;28;20457;-86
2022/05/29 02:31:40;;;;;;;6.82;2.67;;;13.10;98.10;;;;;;4956979;28;20451;-86
2022/05/29 02:34:44;;;;;;;9.02;2.63;;;13.10;98.20;;;;;;4955994;28;20042;-86
2022/05/29 02:37:28;;;;;;;5.95;2.20;;;13.10;98.30;;;;;;4953902;28;20027;-86
2022/05/29 02:40:15;;;;;;;9.13;2.05;;;13.10;98.40;;;;;;4943383;28;20077;-86
2022/05/29 02:43:16;;;;;;;9.32;2.30;;;13.10;98.40;;;;;;4956416;28;20027;-86
2022/05/29 02:45:43;;;;;;;5.72;1.85;;;13.10;98.50;;;;;;4958653;28;20022;-85
2022/05/29 02:48:33;;;;;;;6.65;1.70;;;13.10;98.60;;;;;;4954679;28;20042;-85
2022/05/29 02:51:14;;;;;;;5.57;1.92;;;13.00;98.70;;;;;;4945500;28;20121;-86
2022/05/29 02:53:44;;;;;;;6.50;2.03;;;13.00;98.80;;;;;;4956572;28;20034;-87
2022/05/29 02:56:11;;;;;;;6.93;2.00;;;13.10;98.90;;;;;;4937546;28;20024;-86
2022/05/29 02:58:39;;;;;;;5.25;1.90;;;13.00;98.90;;;;;;4937513;29;20039;-86
2022/05/29 03:01:32;;;;;;;4.80;1.70;;;13.00;98.80;;;;;;4953612;28;20451;-86
2022/05/29 03:04:23;;;;;;;6.00;2.10;;;13.00;98.90;;;;;;4962468;28;20102;-87
2022/05/29 03:07:11;;;;;;;5.60;1.80;;;13.00;98.90;;;;;;4953264;28;20127;-86
2022/05/29 03:10:04;;;;;;;9.10;2.08;;;12.90;98.90;;;;;;4967786;28;20027;-85
2022/05/29 03:12:38;;;;;;;7.28;1.70;;;13.00;99.00;;;;;;4961372;28;20027;-86
2022/05/29 03:15:37;;;;;;;6.78;1.77;;;13.00;99.10;;;;;;4973903;28;20050;-86
2022/05/29 03:18:37;;;;;;;6.85;1.70;;;12.90;99.10;;;;;;4968130;28;20459;-86
2022/05/29 03:21:12;;;;;;;4.35;1.58;;;12.90;99.20;;;;;;4967304;28;20114;-87
2022/05/29 03:23:52;;;;;;;6.43;2.15;;;12.90;99.30;;;;;;4956560;29;20042;-85
2022/05/29 03:26:32;;;;;;;4.70;1.50;;;12.80;99.20;;;;;;4954303;29;20094;-85
2022/05/29 03:29:12;;;;;;;9.00;2.22;;;12.80;99.40;;;;;;4951573;28;20054;-84
2022/05/29 03:31:40;;;;;;;6.22;2.00;;;12.80;99.50;;;;;;4956339;29;20487;-85
2022/05/29 03:34:07;;;;;;;7.32;1.90;;;12.80;99.70;;;;;;4951469;28;20023;-85
2022/05/29 03:36:35;;;;;;;10.18;1.98;;;12.80;99.90;;;;;;4955931;28;20015;-86
2022/05/29 03:39:04;;;;;;;5.25;1.90;;;12.80;99.90;;;;;;4958222;28;20038;-86
2022/05/29 03:41:43;;;;;;;6.38;1.95;;;12.80;99.90;;;;;;4955720;28;20018;-86
2022/05/29 03:44:14;;;;;;;6.22;2.05;;;12.80;99.90;;;;;;4969084;28;20431;-86
2022/05/29 03:46:40;;;;;;;5.15;1.80;;;12.80;99.90;;;;;;4978947;28;20049;-86
2022/05/29 03:49:08;;;;;;;5.38;2.22;;;12.80;99.90;;;;;;4978428;28;20533;-85
2022/05/29 03:51:37;;;;;;;8.88;2.15;;;12.80;99.90;;;;;;4947031;28;20027;-86
2022/05/29 03:54:04;;;;;;;6.57;2.20;;;12.80;99.90;;;;;;4978926;28;20059;-86
2022/05/29 03:56:30;;;;;;;5.65;2.13;;;12.80;99.90;;;;;;4961404;28;20027;-86
2022/05/29 03:58:56;;;;;;;5.55;2.00;;;12.70;99.90;;;;;;4955672;28;20062;-86
2022/05/29 04:01:22;;;;;;;6.82;2.40;;;12.80;99.90;;;;;;4953739;28;20030;-86
2022/05/29 04:03:49;;;;;;;8.23;2.22;;;12.80;99.90;;;;;;4974636;28;20050;-87
2022/05/29 04:06:22;;;;;;;6.30;2.03;;;12.70;99.90;;;;;;4961419;28;20473;-86
2022/05/29 04:14:22;;;;;;;6.35;2.28;;;12.70;99.90;;;;;;4975901;28;20561;-86
2022/05/29 04:16:48;;;;;;;9.52;2.30;;;12.70;99.90;;;;;;4958747;28;20058;-87
2022/05/29 04:19:16;;;;;;;8.98;2.40;;;12.70;99.90;;;;;;4963008;28;20034;-85
2022/05/29 04:21:44;;;;;;;9.45;2.60;;;12.60;99.90;;;;;;4940108;29;20028;-86
2022/05/29 04:24:10;;;;;;;9.10;2.53;;;12.70;99.90;;;;;;4957801;28;20031;-85
2022/05/29 04:26:38;;;;;;;6.43;2.10;;;12.70;99.90;;;;;;4943087;28;20074;-86
2022/05/29 04:29:05;;;;;;;8.68;2.70;;;12.70;99.90;;;;;;4958543;28;20479;-86
2022/05/29 04:31:32;;;;;;;11.02;3.90;;;12.70;99.90;;;;;;4967295;28;20377;-86
2022/05/29 04:34:00;;;;;;;7.80;2.35;;;12.70;99.90;;;;;;4961612;28;20022;-86
2022/05/29 04:36:26;;;;;;;9.52;2.25;;;12.70;99.90;;;;;;4955711;28;20031;-86
2022/05/29 04:38:52;;;;;;;6.10;1.95;;;12.70;99.90;;;;;;4952871;28;20030;-86
2022/05/29 04:41:24;;;;;;;6.28;2.10;;;12.70;99.90;;;;;;4970468;28;20039;-85
2022/05/29 04:43:53;;;;;;;7.32;2.08;;;12.70;99.90;;;;;;4956714;28;20396;-86
2022/05/29 04:46:19;;;;;;;6.80;1.95;;;12.70;99.90;;;;;;4955273;28;20104;-85
2022/05/29 04:48:45;;;;;;;7.40;2.58;;;12.80;99.90;;;;;;4965686;28;20109;-86
2022/05/29 04:51:19;;;;;;;5.95;1.80;;;12.70;99.90;;;;;;4955422;28;20031;-85
2022/05/29 04:53:45;;;;;;;7.18;2.00;;;12.80;99.90;;;;;;4939440;29;20485;-86
2022/05/29 04:56:11;;;;;;;7.22;1.90;;;12.80;99.90;;;;;;4968463;28;20113;-86
2022/05/29 04:58:36;;;;;;;4.78;1.65;;;12.80;99.90;;;;;;4954782;28;20440;-86
2022/05/29 05:01:05;;;;;;;6.22;1.80;;;12.80;99.90;;;;;;4956111;28;20531;-86
2022/05/29 05:03:31;;;;;;;4.35;1.73;;;12.80;99.90;;;;;;4971654;28;20463;-85
2022/05/29 05:05:57;;;;;;;6.18;1.75;;;12.70;99.90;;;;;;4974363;28;20045;-85
2022/05/29 05:08:28;;;;;;;5.78;1.75;;;12.80;99.90;;;;;;4958135;28;20027;-85
2022/05/29 05:10:54;;;;;;;4.38;1.80;;;12.80;99.90;;;;;;4968285;28;20018;-85
2022/05/29 05:13:23;;;;;;;5.45;1.90;;;12.70;99.90;;;;;;4945750;28;20031;-85
2022/05/29 05:16:00;;;;;;;6.15;2.30;;;12.70;99.90;;;;;;4924625;29;20055;-85
2022/05/29 05:18:29;;;;;;;5.95;1.80;;;12.70;99.90;;;;;;4938176;29;20132;-85
2022/05/29 05:20:54;;;;;;;4.10;1.73;;;12.80;99.90;;;;;;4938713;29;20047;-85
2022/05/29 05:23:22;;;;;;;5.10;1.80;;;12.80;99.90;;;;;;4969141;28;20085;-86
2022/05/29 05:25:48;;;;;;;5.20;2.13;;;12.80;99.90;;;;;;4934229;29;20387;-85
2022/05/29 05:28:14;;;;;;;5.10;1.67;;;12.80;99.90;;;;;;4938397;29;20035;-85
2022/05/29 05:30:40;;;;;;;4.95;1.70;;;12.80;99.90;;;;;;4934891;29;20035;-85
2022/05/29 05:33:05;;;;;;;7.13;1.88;;;12.80;99.90;;;;;;4959965;28;20046;-85
2022/05/29 05:35:31;;;;;;;6.25;1.80;;;12.80;99.90;;;;;;4939543;29;20116;-85
2022/05/29 05:37:57;;;;;;;2.35;1.40;;;12.80;99.90;;;;;;4938185;29;20083;-85
2022/05/29 05:40:25;;;;;;;5.50;1.50;;;12.80;99.90;;;;;;4952936;29;20359;-85
2022/05/29 05:42:51;;;;;;;5.03;1.73;;;12.80;99.90;;;;;;4945617;28;20455;-85
2022/05/29 05:45:17;;;;;;;7.80;1.63;;;12.90;99.90;;;;;;4935818;29;20115;-84
2022/05/29 05:47:45;;;;;;;5.10;1.70;;;12.90;99.90;;;;;;4920366;29;20464;-85
2022/05/29 05:50:15;;;;;;;5.93;1.58;;;12.90;99.90;;;;;;4965060;28;20030;-85
2022/05/29 05:52:41;;;;;;;5.75;1.65;;;12.80;99.90;;;;;;4945029;28;20031;-86
2022/05/29 05:55:13;;;;;;;5.70;1.73;;;12.90;99.90;;;;;;4935025;29;20023;-85
2022/05/29 05:57:39;;;;;;;5.90;1.67;;;12.90;99.90;;;;;;4935592;29;20024;-85
2022/05/29 06:00:09;;;;;;;3.35;1.48;;;12.90;99.90;;;;;;4945054;29;20403;-86
2022/05/29 06:02:35;;;;;;;6.25;1.88;;;12.90;99.90;;;;;;4935848;29;20447;-85
2022/05/29 06:05:00;;;;;;;7.00;2.08;;;12.90;99.90;;;;;;4920203;29;20118;-85
2022/05/29 06:07:26;;;;;;;7.13;1.80;;;12.90;99.90;;;;;;4946793;28;20127;-86
2022/05/29 06:09:54;;;;;;;7.95;2.00;;;12.90;99.90;;;;;;4952048;29;20054;-85
2022/05/29 06:12:21;;;;;;;4.13;1.33;;;12.90;99.90;;;;;;4957077;29;20535;-85
2022/05/29 06:14:47;;;;;;;6.22;2.35;;;12.90;99.90;;;;;;4950818;28;20077;-86
2022/05/29 06:17:13;;;;;;;3.97;1.50;;;12.90;99.90;;;;;;4972035;28;20383;-86
2022/05/29 06:19:39;;;;;;;5.47;1.52;;;12.80;99.90;;;;;;4954227;28;20050;-86
2022/05/29 06:22:07;;;;;;;3.78;1.30;;;12.90;99.90;;;;;;4946795;28;20065;-85
2022/05/29 06:24:33;;;;;;;4.47;1.73;;;12.90;99.90;;;;;;4973415;28;20033;-86
2022/05/29 06:26:59;;;;;;;3.63;1.33;;;12.90;99.90;;;;;;4945286;28;20018;-85
2022/05/29 06:29:26;;;;;;;3.97;1.50;;;12.90;99.90;;;;;;4960948;28;20044;-86
2022/05/29 06:31:53;;;;;;;5.65;1.65;;;12.90;99.90;;;;;;4975422;28;20018;-86
2022/05/29 06:34:21;;;;;;;3.67;1.45;;;12.90;99.90;;;;;;4969022;28;20031;-86
2022/05/29 06:36:46;;;;;;;2.85;1.40;;;12.90;99.90;;;;;;4961320;28;20425;-86
2022/05/29 06:39:12;;;;;;;5.22;1.40;;;12.90;99.90;;;;;;4954716;29;20027;-86
2022/05/29 06:41:39;;;;;;;6.40;2.10;;;13.00;99.90;;;;;;4957598;28;20025;-86
2022/05/29 06:44:06;;;;;;;4.55;1.63;;;12.90;99.90;;;;;;4977028;28;20145;-86
2022/05/29 06:46:32;;;;;;;3.67;1.52;;;12.90;99.90;;;;;;4963089;28;20109;-85
2022/05/29 06:48:57;;;;;;;5.30;1.60;;;12.90;99.90;;;;;;4993840;28;20097;-86
2022/05/29 06:51:23;;;;;;;4.95;1.98;;;12.90;99.90;;;;;;4960536;28;20038;-85
2022/05/29 06:53:50;;;;;;;6.25;1.60;;;12.90;99.90;;;;;;4976517;28;20035;-86
2022/05/29 06:56:19;;;;;;;7.82;2.17;;;12.90;99.90;;;;;;4967229;28;20033;-86
2022/05/29 06:58:46;;;;;;;5.75;1.77;;;12.90;99.90;;;;;;4964532;28;20037;-86
2022/05/29 07:07:00;;;;;;;6.13;1.75;;;12.90;99.90;;;;;;4976779;28;20033;-86
2022/05/29 07:09:26;;;;;;;;;;;13.00;99.90;;;;;;4963711;28;20037;-87
2022/05/29 07:11:59;;;;;;;5.78;2.42;;;13.00;99.90;;;;;;4952264;29;19974;-86
2022/05/29 07:14:27;;;;;;;5.65;1.70;;;13.00;99.90;;;;;;4981341;28;20039;-86
2022/05/29 07:16:57;;;;;;;4.70;1.50;;;13.00;99.90;;;;;;4975263;28;20031;-86
2022/05/29 07:19:41;;;;;;;;;;;;;;;;;;;;;
2022/05/29 07:22:17;;;;;;;;;;;;;;;;;;;;;
2022/05/29 07:24:48;;;;;;;4.13;1.38;;;13.10;99.90;;;;;;4996373;28;20035;-88
2022/05/29 07:27:14;;;;;;;2.58;1.33;;;13.10;99.90;;;;;;4985860;28;20034;-89
2022/05/29 07:29:43;;;;;;;3.75;1.33;;;13.10;99.90;;;;;;4977782;28;20023;-87
2022/05/29 07:32:12;;;;;;;6.32;1.75;;;13.10;99.90;;;;;;4983122;28;20042;-88
2022/05/29 07:34:43;;;;;;;5.30;1.35;;;13.10;99.90;;;;;;4984452;28;20030;-88
2022/05/29 07:37:13;;;;;;;5.47;1.35;;;13.20;99.90;;;;;;4996998;28;20312;-88
2022/05/29 07:39:43;;;;;;;4.35;1.23;;;13.20;99.90;;;;;;4980374;28;20023;-88
2022/05/29 07:44:56;;;;;;;4.57;1.60;;;13.10;99.90;;;;;;4983099;28;20067;-88
2022/05/29 07:47:27;;;;;;;4.75;1.40;;;13.20;99.90;;;;;;4968723;28;20054;-87
2022/05/29 07:49:57;;;;;;;4.65;1.40;;;13.20;99.90;;;;;;4975416;29;20038;-87
2022/05/29 07:52:32;;;;;;;4.25;1.67;;;13.20;99.90;;;;;;4980130;28;20531;-87
2022/05/29 07:55:08;;;;;;;7.10;1.30;;;13.20;99.90;;;;;;4978742;28;20090;-88
2022/05/29 07:57:36;;;;;;;4.85;1.58;;;13.20;99.90;;;;;;4955811;28;20031;-87
2022/05/29 08:00:04;;;;;;;3.42;1.27;;;13.20;99.90;;;;;;4969362;28;20038;-87
2022/05/29 08:02:34;;;;;;;5.60;1.35;;;13.20;99.90;;;;;;4954493;28;20050;-88
2022/05/29 08:05:05;;;;;;;3.28;1.30;;;13.20;99.90;;;;;;4948727;29;20078;-86
2022/05/29 08:07:31;;;;;;;4.97;1.27;;;13.20;99.90;;;;;;4976176;28;20014;-87
2022/05/29 08:09:57;;;;;;;5.80;1.50;;;13.30;99.90;;;;;;4958606;29;20023;-87
2022/05/29 08:12:23;;;;;;;6.30;1.85;;;13.30;99.90;;;;;;4940450;28;20020;-87
2022/05/29 08:14:48;;;;;;;5.50;1.67;;;13.30;99.90;;;;;;4940433;29;20051;-87
2022/05/29 08:17:16;;;;;;;3.75;1.38;;;13.30;99.90;;;;;;4967875;28;20030;-87
2022/05/29 08:19:42;;;;;;;2.88;1.50;;;13.40;99.90;;;;;;4946402;28;20026;-87
2022/05/29 08:22:11;;;;;;;4.47;1.88;;;13.40;99.90;;;;;;4971843;28;20364;-87
2022/05/29 08:33:11;;;;;;;6.53;2.10;;;13.50;99.90;;;;;;4957865;28;20083;-87
2022/05/29 08:35:38;;;;;;;3.78;1.50;;;13.50;99.90;;;;;;4951574;28;20019;-88
2022/05/29 08:38:08;;;;;;;5.68;1.30;;;13.50;99.90;;;;;;4976399;28;20026;-88
2022/05/29 08:40:44;;;;;;;4.07;1.60;;;13.50;99.90;;;;;;4968756;28;20416;-88
2022/05/29 08:43:16;;;;;;;6.05;1.70;;;13.50;99.90;;;;;;4959796;28;20070;-87
2022/05/29 08:45:46;;;;;;;6.72;1.90;;;13.60;99.90;;;;;;4969214;28;20530;-88
2022/05/29 08:48:12;;;;;;;5.40;1.52;;;13.60;99.90;;;;;;4962699;28;20030;-87
2022/05/29 08:51:12;;;;;;;4.63;1.85;;;13.60;99.90;;;;;;4956152;29;20027;-87
2022/05/29 08:53:49;;;;;;;5.20;1.83;;;13.60;99.90;;;;;;4960376;28;20030;-87
2022/05/29 08:56:35;;;;;;;5.57;1.52;;;13.60;99.90;;;;;;4958113;28;20489;-87
2022/05/29 08:59:09;;;;;;;6.75;1.75;;;13.70;99.90;;;;;;4958881;28;20058;-87
2022/05/29 09:02:05;;;;;;;5.30;1.70;;;13.70;99.90;;;;;;4957424;28;20038;-86
2022/05/29 09:04:45;;;;;;;6.43;1.67;;;13.70;99.90;;;;;;4947821;29;20027;-88
2022/05/29 09:07:15;;;;;;;6.65;1.50;;;13.80;99.90;;;;;;4941283;28;20023;-87
2022/05/29 09:09:56;;;;;;;6.40;1.50;;;13.80;99.90;;;;;;4966329;28;20118;-88
2022/05/29 09:12:53;;;;;;;4.07;1.55;;;13.80;99.90;;;;;;4959563;28;20554;-87
2022/05/29 09:15:37;;;;;;;4.80;1.40;;;13.90;99.90;;;;;;4948423;28;20057;-87
2022/05/29 09:18:15;;;;;;;6.22;1.30;;;13.90;99.90;;;;;;4964634;28;20081;-86
2022/05/29 09:21:04;;;;;;;4.78;1.23;;;13.90;99.90;;;;;;4963772;28;20081;-88
2022/05/29 09:23:38;;;;;;;4.60;1.23;;;13.90;99.90;;;;;;4967085;28;20475;-87
2022/05/29 09:26:09;;;;;;;5.45;1.63;;;14.00;99.90;;;;;;4960595;28;20023;-86
2022/05/29 09:28:40;;;;;;;4.88;1.30;;;14.00;99.90;;;;;;4977341;28;20034;-88
2022/05/29 09:31:11;;;;;;;3.85;1.17;;;14.00;99.90;;;;;;4973607;28;20053;-87
2022/05/29 09:33:40;;;;;;;6.50;1.60;;;14.00;99.90;;;;;;4945181;29;20028;-88
2022/05/29 09:36:26;;;;;;;5.53;1.45;;;14.10;99.90;;;;;;4957379;28;20027;-87
2022/05/29 09:39:11;;;;;;;;;;;;;;;;;;;;;
2022/05/29 09:41:55;;;;;;;5.47;1.20;;;14.10;99.90;;;;;;4993812;28;20022;-89
2022/05/29 09:44:31;;;;;;;4.95;1.50;;;14.20;99.90;;;;;;4980141;28;20447;-89
2022/05/29 09:49:40;;;;;;;6.22;1.35;;;14.20;99.90;;;;;;4943357;29;20074;-88
2022/05/29 09:50:09;;;;;;;2.95;1.30;;;14.20;99.90;;;;;;4960434;28;20057;-89
2022/05/29 09:52:44;;;;;;;4.93;1.27;;;14.30;99.90;;;;;;4970320;28;20489;-89
2022/05/29 09:55:22;;;;;;;5.32;1.30;;;14.30;99.90;;;;;;4969157;28;20027;-88
2022/05/29 09:58:02;;;;;;;3.83;1.17;;;14.30;99.90;;;;;;4964918;28;20019;-88
2022/05/29 10:00:46;;;;;;;6.23;1.20;;;14.30;99.90;;;;;;4965409;28;20027;-88
2022/05/29 10:03:44;;;;;;;5.07;1.38;;;14.40;99.90;;;;;;4954320;29;20098;-88
2022/05/29 10:06:22;;;;;;;4.80;1.30;;;14.40;99.90;;;;;;4958069;28;20122;-86
2022/05/29 10:08:52;;;;;;;6.40;1.40;;;14.40;99.90;;;;;;4970178;28;20050;-88
2022/05/29 10:11:22;;;;;;;5.82;1.40;;;14.50;99.90;;;;;;4957447;28;20027;-85
2022/05/29 10:13:49;;;;;;;8.23;1.27;;;14.50;99.90;;;;;;4976254;28;20475;-86
2022/05/29 10:16:33;;;;;;;4.00;1.23;;;14.60;99.90;;;;;;4957461;28;20046;-87
2022/05/29 10:18:59;;;;;;;5.88;1.30;;;14.60;99.90;;;;;;4957727;28;20038;-86
2022/05/29 10:21:30;;;;;;;6.35;1.55;;;14.60;99.90;;;;;;4953221;28;20117;-85
2022/05/29 10:24:36;;;;;;;4.35;1.25;;;14.60;99.90;;;;;;4937567;28;20023;-86
2022/05/29 10:27:25;;;;;;;3.88;1.08;;;14.60;99.90;;;;;;4946952;29;20035;-89
2022/05/29 10:36:50;;;;;;;5.43;1.75;;;14.70;99.90;;;;;;4958124;28;20050;-91
2022/05/29 10:39:29;;;;;;;5.30;1.20;;;14.70;99.90;;;;;;4963754;28;20023;-88
2022/05/29 10:41:57;;;;;;;8.15;1.45;;;14.80;99.90;;;;;;4952756;28;20272;-88
2022/05/29 10:44:35;;;;;;;4.75;1.08;;;14.80;99.90;;;;;;4960477;28;20070;-87
2022/05/29 10:47:20;;;;;;;3.90;1.13;;;14.90;99.90;;;;;;4969399;28;20038;-87
2022/05/29 10:50:12;;;;;;;4.13;1.40;;;14.90;99.90;;;;;;4958736;28;20026;-88
2022/05/29 10:53:12;;;;;;;5.30;1.45;;;14.90;99.90;;;;;;4973821;28;20030;-89
2022/05/29 10:56:09;;;;;;;4.40;1.17;;;15.00;99.90;;;;;;4961288;28;20038;-88
2022/05/29 10:58:45;;;;;;;5.00;1.20;;;14.90;99.90;;;;;;4958003;28;20037;-89
2022/05/29 11:04:48;;;;;;;5.13;1.30;;;14.90;99.90;;;;;;4956186;28;20122;-88
2022/05/29 11:07:15;;;;;;;4.53;1.20;;;14.90;99.90;;;;;;4965672;28;20015;-89
2022/05/29 11:10:29;;;;;;;9.68;1.45;;;15.00;99.90;;;;;;4965026;28;20498;-89
2022/05/29 11:13:16;;;;;;;4.55;1.27;;;15.00;99.90;;;;;;4937082;29;20433;-86
2022/05/29 11:15:53;;;;;;;4.78;1.20;;;15.00;99.90;;;;;;4946800;28;20054;-89
2022/05/29 11:18:31;;;;;;;9.13;1.73;;;15.10;99.90;;;;;;4957777;29;20042;-89
2022/05/29 11:21:07;;;;;;;11.85;2.38;;;15.10;99.90;;;;;;4955247;28;20118;-88
2022/05/29 11:23:57;;;;;;;5.32;1.40;;;15.10;99.90;;;;;;4952788;28;20023;-87
2022/05/29 11:26:33;;;;;;;6.32;1.60;;;15.20;99.90;;;;;;4987541;28;20444;-88
2022/05/29 11:29:28;;;;;;;6.53;1.27;;;15.20;99.90;;;;;;4963327;28;20053;-87
2022/05/29 11:32:23;;;;;;;4.35;1.15;;;15.20;99.90;;;;;;4959144;28;20131;-88
2022/05/29 11:35:01;;;;;;;5.80;1.20;;;15.30;99.90;;;;;;4950190;28;20019;-86
2022/05/29 11:37:55;;;;;;;4.78;1.20;;;15.30;99.90;;;;;;4973769;28;20027;-86
2022/05/29 11:40:27;;;;;;;5.78;1.25;;;15.30;99.90;;;;;;4929780;29;20035;-88
2022/05/29 11:43:28;;;;;;;4.45;0.93;;;15.40;99.90;;;;;;4956197;28;20086;-86
2022/05/29 11:52:06;;;;;;;5.53;1.30;;;15.40;99.90;;;;;;4974507;28;20041;-87
2022/05/29 11:54:40;;;;;;;6.78;1.75;;;15.50;99.90;;;;;;4969510;28;20357;-87
2022/05/29 11:57:06;;;;;;;5.85;1.23;;;15.50;99.90;;;;;;4954085;29;20023;-88
2022/05/29 11:59:55;;;;;;;7.20;1.85;;;15.50;99.90;;;;;;4944302;29;20031;-87
2022/05/29 12:02:55;;;;;;;6.32;1.58;;;15.60;99.90;;;;;;4967278;28;20038;-88
2022/05/29 12:05:51;;;;;;;5.55;1.58;;;15.60;99.90;;;;;;4946216;28;20034;-87
2022/05/29 12:08:35;;;;;;;3.97;1.05;;;15.70;99.90;;;;;;4974802;28;20038;-87
2022/05/29 12:11:04;;;;;;;5.50;1.40;;;15.70;99.90;;;;;;4959412;28;20098;-87
2022/05/29 12:13:40;;;;;;;3.38;1.00;;;15.70;99.90;;;;;;4959646;28;20023;-87
2022/05/29 12:16:18;;;;;;;4.78;1.25;;;15.80;99.90;;;;;;4958020;28;20792;-86
2022/05/29 12:18:49;;;;;;;6.07;1.52;;;15.90;99.90;;;;;;4987656;28;20395;-87
2022/05/29 12:21:26;;;;;;;4.85;1.23;;;16.00;99.90;;;;;;4951312;28;20091;-86
2022/05/29 12:23:54;;;;;;;5.53;1.17;;;16.00;99.90;;;;;;4977750;28;20532;-87
2022/05/29 12:26:32;;;;;;;3.92;0.90;;;16.00;99.90;;;;;;4976519;28;20058;-86
2022/05/29 12:29:05;;;;;;;5.80;1.40;;;16.10;99.90;;;;;;4972929;28;20080;-88
2022/05/29 12:31:41;;;;;;;5.10;1.58;;;16.20;99.90;;;;;;4966896;28;20109;-85
2022/05/29 12:34:23;;;;;;;4.45;1.05;;;16.20;99.90;;;;;;4963194;28;20030;-87
2022/05/29 12:37:09;;;;;;;4.57;1.10;;;16.30;99.90;;;;;;4950362;29;20020;-86
2022/05/29 12:39:40;;;;;;;4.97;1.13;;;16.30;99.90;;;;;;4940371;28;20034;-86
2022/05/29 12:42:46;;;;;;;3.63;1.00;;;16.40;99.90;;;;;;4966923;28;20026;-87
2022/05/29 12:45:28;;;;;;;3.72;1.02;;;16.40;99.90;;;;;;4951075;29;20440;-86
2022/05/29 12:48:15;;;;;;;4.05;1.10;;;16.50;99.90;;;;;;4988247;28;20033;-86
2022/05/29 12:51:03;;;;;;;4.63;1.08;;;16.50;99.70;;;;;;4958429;28;20122;-86
2022/05/29 12:53:52;;;;;;;3.05;0.93;;;16.60;99.40;;;;;;4971872;28;20029;-87
2022/05/29 12:56:21;;;;;;;3.13;0.60;;;16.60;99.00;;;;;;4953398;28;20035;-86
2022/05/29 12:59:24;;;;;;;3.30;0.90;;;16.60;98.50;;;;;;4954258;28;20030;-86
2022/05/29 13:02:03;;;;;;;3.88;1.27;;;16.50;98.20;;;;;;4963933;28;20019;-86
2022/05/29 13:04:33;;;;;;;4.10;0.90;;;16.50;98.00;;;;;;4977564;28;20019;-84
2022/05/29 13:07:21;;;;;;;3.13;0.70;;;16.50;97.60;;;;;;4955805;28;20031;-85
2022/05/29 13:10:02;;;;;;;4.00;0.85;;;16.50;97.40;;;;;;4983290;28;20033;-86
2022/05/29 13:12:40;;;;;;;4.20;1.00;;;16.50;97.10;;;;;;4957284;28;20030;-85
2022/05/29 13:15:20;;;;;;;4.68;0.80;;;16.50;96.90;;;;;;4964416;28;20043;-86
2022/05/29 13:17:46;;;;;;;3.47;0.90;;;16.60;96.50;;;;;;4970126;28;20069;-85
2022/05/29 13:20:16;;;;;;;4.43;1.05;;;16.60;96.40;;;;;;4977078;28;20061;-86
2022/05/29 13:22:47;;;;;;;3.25;1.00;;;16.60;96.30;;;;;;4987260;28;20019;-87
2022/05/29 13:25:14;;;;;;;4.95;0.73;;;16.70;96.20;;;;;;4957625;28;20029;-86
2022/05/29 13:27:40;;;;;;;3.25;0.82;;;16.70;96.10;;;;;;4962229;28;20475;-87
2022/05/29 13:30:29;;;;;;;6.22;1.02;;;16.60;95.60;;;;;;4956631;28;20027;-86
2022/05/29 13:33:34;;;;;;;4.60;0.73;;;16.70;95.10;;;;;;4954453;28;20103;-87
2022/05/29 13:35:59;;;;;;;3.10;0.95;;;16.60;94.60;;;;;;4973308;28;20026;-86
2022/05/29 13:38:44;;;;;;;2.33;0.70;;;16.60;94.50;;;;;;4954781;29;20424;-87
2022/05/29 13:41:30;;;;;;;1.67;0.68;;;16.60;94.30;;;;;;4957525;28;20061;-86
2022/05/29 13:43:59;;;;;;;4.43;0.90;;;16.60;94.50;;;;;;4954496;28;20056;-88
2022/05/29 13:46:29;;;;;;;2.25;0.80;;;16.60;94.10;;;;;;4954679;29;20020;-86
2022/05/29 13:49:17;;;;;;;5.53;1.00;;;16.60;94.00;;;;;;4938583;29;20391;-87
2022/05/29 13:51:44;;;;;;;3.90;0.80;;;16.70;94.10;;;;;;4946822;28;20282;-86
2022/05/29 13:54:31;;;;;;;2.60;1.05;;;16.70;94.00;;;;;;4960327;28;20031;-87
2022/05/29 13:57:03;;;;;;;1.60;0.68;;;16.70;93.80;;;;;;4938008;29;20054;-88
2022/05/29 14:05:43;;;;;;;2.25;0.90;;;16.80;93.40;;;;;;4981565;28;20075;-85
2022/05/29 14:08:18;;;;;;;5.22;1.20;;;16.90;93.20;;;;;;4953639;28;20019;-88
2022/05/29 14:11:11;;;;;;;4.88;0.88;;;16.90;92.90;;;;;;4967124;28;20711;-86
2022/05/29 14:13:40;;;;;;;3.10;0.88;;;16.90;93.10;;;;;;4952849;28;20034;-86